sensor_id;sensor_type;location;lat;lon;timestamp;temperature;humidity
43920;DHT22;29578;51.946;5.874;2022-07-18T00:01:22;17.80;57.50
43920;DHT22;29578;51.946;5.874;2022-07-18T00:03:47;17.70;57.50
43920;DHT22;29578;51.946;5.874;2022-07-18T00:06:13;17.70;57.60
43920;DHT22;29578;51.946;5.874;2022-07-18T00:08:39;17.60;57.70
43920;DHT22;29578;51.946;5.874;2022-07-18T00:11:05;17.60;57.80
43920;DHT22;29578;51.946;5.874;2022-07-18T00:13:30;17.60;57.90
43920;DHT22;29578;51.946;5.874;2022-07-18T00:15:56;17.50;58.00
43920;DHT22;29578;51.946;5.874;2022-07-18T00:18:22;17.50;58.10
43920;DHT22;29578;51.946;5.874;2022-07-18T00:20:47;17.50;58.10
43920;DHT22;29578;51.946;5.874;2022-07-18T00:23:13;17.50;58.20
43920;DHT22;29578;51.946;5.874;2022-07-18T00:25:39;17.40;58.30
43920;DHT22;29578;51.946;5.874;2022-07-18T00:28:05;17.40;58.40
43920;DHT22;29578;51.946;5.874;2022-07-18T00:30:30;17.40;58.50
43920;DHT22;29578;51.946;5.874;2022-07-18T00:32:56;17.30;58.50
43920;DHT22;29578;51.946;5.874;2022-07-18T00:35:22;17.30;58.60
43920;DHT22;29578;51.946;5.874;2022-07-18T00:37:48;17.30;58.70
43920;DHT22;29578;51.946;5.874;2022-07-18T00:40:13;17.20;58.70
43920;DHT22;29578;51.946;5.874;2022-07-18T00:42:39;17.20;58.80
43920;DHT22;29578;51.946;5.874;2022-07-18T00:45:05;17.20;58.90
43920;DHT22;29578;51.946;5.874;2022-07-18T00:47:31;17.20;59.00
43920;DHT22;29578;51.946;5.874;2022-07-18T00:49:57;17.10;59.00
43920;DHT22;29578;51.946;5.874;2022-07-18T00:52:22;17.10;59.10
43920;DHT22;29578;51.946;5.874;2022-07-18T00:54:48;17.10;59.20
43920;DHT22;29578;51.946;5.874;2022-07-18T00:57:14;17.10;59.30
43920;DHT22;29578;51.946;5.874;2022-07-18T00:59:40;17.00;59.30
43920;DHT22;29578;51.946;5.874;2022-07-18T01:02:25;17.00;59.40
43920;DHT22;29578;51.946;5.874;2022-07-18T01:04:52;17.00;59.50
43920;DHT22;29578;51.946;5.874;2022-07-18T01:07:18;17.00;59.60
43920;DHT22;29578;51.946;5.874;2022-07-18T01:09:44;17.00;59.60
43920;DHT22;29578;51.946;5.874;2022-07-18T01:12:10;17.00;59.60
43920;DHT22;29578;51.946;5.874;2022-07-18T01:14:36;17.00;59.60
43920;DHT22;29578;51.946;5.874;2022-07-18T01:17:02;17.00;60.10
43920;DHT22;29578;51.946;5.874;2022-07-18T01:19:28;17.00;59.50
43920;DHT22;29578;51.946;5.874;2022-07-18T01:21:53;17.10;59.60
43920;DHT22;29578;51.946;5.874;2022-07-18T01:24:19;17.00;59.60
43920;DHT22;29578;51.946;5.874;2022-07-18T01:26:45;16.90;59.60
43920;DHT22;29578;51.946;5.874;2022-07-18T01:29:11;17.00;59.70
43920;DHT22;29578;51.946;5.874;2022-07-18T01:31:37;16.90;59.70
43920;DHT22;29578;51.946;5.874;2022-07-18T01:34:03;16.90;59.70
43920;DHT22;29578;51.946;5.874;2022-07-18T01:36:28;16.90;59.80
43920;DHT22;29578;51.946;5.874;2022-07-18T01:38:54;17.00;59.80
43920;DHT22;29578;51.946;5.874;2022-07-18T01:41:20;16.90;59.80
43920;DHT22;29578;51.946;5.874;2022-07-18T01:43:45;16.90;59.90
43920;DHT22;29578;51.946;5.874;2022-07-18T01:46:11;16.90;59.90
43920;DHT22;29578;51.946;5.874;2022-07-18T01:48:39;16.90;59.90
43920;DHT22;29578;51.946;5.874;2022-07-18T01:51:05;16.90;60.00
43920;DHT22;29578;51.946;5.874;2022-07-18T01:53:35;16.90;60.00
43920;DHT22;29578;51.946;5.874;2022-07-18T01:56:01;16.90;60.00
43920;DHT22;29578;51.946;5.874;2022-07-18T01:58:27;16.90;60.00
43920;DHT22;29578;51.946;5.874;2022-07-18T02:00:53;16.90;60.10
43920;DHT22;29578;51.946;5.874;2022-07-18T02:03:18;16.90;60.10
43920;DHT22;29578;51.946;5.874;2022-07-18T02:05:44;16.80;60.10
43920;DHT22;29578;51.946;5.874;2022-07-18T02:08:10;16.80;60.20
43920;DHT22;29578;51.946;5.874;2022-07-18T02:10:35;16.80;60.90
43920;DHT22;29578;51.946;5.874;2022-07-18T02:13:01;16.80;60.40
43920;DHT22;29578;51.946;5.874;2022-07-18T02:15:27;16.80;60.50
43920;DHT22;29578;51.946;5.874;2022-07-18T02:17:53;16.70;60.50
43920;DHT22;29578;51.946;5.874;2022-07-18T02:20:18;16.70;60.60
43920;DHT22;29578;51.946;5.874;2022-07-18T02:22:44;16.60;60.60
43920;DHT22;29578;51.946;5.874;2022-07-18T02:25:10;16.60;60.70
43920;DHT22;29578;51.946;5.874;2022-07-18T02:27:37;16.60;60.70
43920;DHT22;29578;51.946;5.874;2022-07-18T02:30:04;16.60;60.80
43920;DHT22;29578;51.946;5.874;2022-07-18T02:32:30;16.60;60.90
43920;DHT22;29578;51.946;5.874;2022-07-18T02:34:56;16.60;61.10
43920;DHT22;29578;51.946;5.874;2022-07-18T02:37:22;16.50;61.10
43920;DHT22;29578;51.946;5.874;2022-07-18T02:39:48;16.50;61.20
43920;DHT22;29578;51.946;5.874;2022-07-18T02:42:13;16.50;61.30
43920;DHT22;29578;51.946;5.874;2022-07-18T02:44:39;16.40;61.30
43920;DHT22;29578;51.946;5.874;2022-07-18T02:47:06;16.30;61.30
43920;DHT22;29578;51.946;5.874;2022-07-18T02:49:32;16.40;61.50
43920;DHT22;29578;51.946;5.874;2022-07-18T02:52:00;16.40;61.60
43920;DHT22;29578;51.946;5.874;2022-07-18T02:54:27;16.30;61.70
43920;DHT22;29578;51.946;5.874;2022-07-18T02:56:53;16.20;61.70
43920;DHT22;29578;51.946;5.874;2022-07-18T02:59:19;16.20;61.90
43920;DHT22;29578;51.946;5.874;2022-07-18T03:01:45;16.10;61.90
43920;DHT22;29578;51.946;5.874;2022-07-18T03:04:11;16.10;61.90
43920;DHT22;29578;51.946;5.874;2022-07-18T03:06:37;16.10;62.00
43920;DHT22;29578;51.946;5.874;2022-07-18T03:09:03;16.10;62.20
43920;DHT22;29578;51.946;5.874;2022-07-18T03:11:29;16.00;62.20
43920;DHT22;29578;51.946;5.874;2022-07-18T03:13:55;16.00;62.30
43920;DHT22;29578;51.946;5.874;2022-07-18T03:16:21;16.00;62.40
43920;DHT22;29578;51.946;5.874;2022-07-18T03:18:46;16.00;62.50
43920;DHT22;29578;51.946;5.874;2022-07-18T03:21:12;15.90;62.50
43920;DHT22;29578;51.946;5.874;2022-07-18T03:23:38;15.90;62.50
43920;DHT22;29578;51.946;5.874;2022-07-18T03:26:03;15.90;62.60
43920;DHT22;29578;51.946;5.874;2022-07-18T03:28:29;15.80;62.60
43920;DHT22;29578;51.946;5.874;2022-07-18T03:30:55;15.90;62.80
43920;DHT22;29578;51.946;5.874;2022-07-18T03:33:25;15.80;62.80
43920;DHT22;29578;51.946;5.874;2022-07-18T03:35:51;15.80;62.80
43920;DHT22;29578;51.946;5.874;2022-07-18T03:38:17;15.80;62.90
43920;DHT22;29578;51.946;5.874;2022-07-18T03:40:42;15.80;63.30
43920;DHT22;29578;51.946;5.874;2022-07-18T03:43:08;15.80;63.60
43920;DHT22;29578;51.946;5.874;2022-07-18T03:45:34;15.80;63.00
43920;DHT22;29578;51.946;5.874;2022-07-18T03:48:00;15.70;63.10
43920;DHT22;29578;51.946;5.874;2022-07-18T03:50:26;15.70;63.10
43920;DHT22;29578;51.946;5.874;2022-07-18T03:52:53;15.70;63.10
43920;DHT22;29578;51.946;5.874;2022-07-18T03:55:19;15.70;63.20
43920;DHT22;29578;51.946;5.874;2022-07-18T03:57:46;15.70;63.20
43920;DHT22;29578;51.946;5.874;2022-07-18T04:00:12;15.70;63.30
43920;DHT22;29578;51.946;5.874;2022-07-18T04:02:39;15.70;63.30
43920;DHT22;29578;51.946;5.874;2022-07-18T04:05:06;15.60;63.30
43920;DHT22;29578;51.946;5.874;2022-07-18T04:07:31;15.70;63.40
43920;DHT22;29578;51.946;5.874;2022-07-18T04:09:57;15.70;63.40
43920;DHT22;29578;51.946;5.874;2022-07-18T04:12:23;15.70;63.40
43920;DHT22;29578;51.946;5.874;2022-07-18T04:14:48;15.70;63.50
43920;DHT22;29578;51.946;5.874;2022-07-18T04:17:14;15.70;63.50
43920;DHT22;29578;51.946;5.874;2022-07-18T04:19:40;15.70;63.50
43920;DHT22;29578;51.946;5.874;2022-07-18T04:22:05;15.70;63.60
43920;DHT22;29578;51.946;5.874;2022-07-18T04:24:31;15.80;64.30
43920;DHT22;29578;51.946;5.874;2022-07-18T04:26:57;15.70;63.50
43920;DHT22;29578;51.946;5.874;2022-07-18T04:29:23;15.80;63.60
43920;DHT22;29578;51.946;5.874;2022-07-18T04:31:48;15.80;63.60
43920;DHT22;29578;51.946;5.874;2022-07-18T04:34:14;15.90;63.60
43920;DHT22;29578;51.946;5.874;2022-07-18T04:36:40;15.90;63.60
43920;DHT22;29578;51.946;5.874;2022-07-18T04:39:05;16.00;63.70
43920;DHT22;29578;51.946;5.874;2022-07-18T04:41:31;15.90;63.60
43920;DHT22;29578;51.946;5.874;2022-07-18T04:43:57;16.00;63.60
43920;DHT22;29578;51.946;5.874;2022-07-18T04:46:22;16.00;63.60
43920;DHT22;29578;51.946;5.874;2022-07-18T04:48:48;16.00;63.60
43920;DHT22;29578;51.946;5.874;2022-07-18T04:51:15;16.00;63.50
43920;DHT22;29578;51.946;5.874;2022-07-18T04:53:41;16.10;63.50
43920;DHT22;29578;51.946;5.874;2022-07-18T04:56:06;16.10;63.50
43920;DHT22;29578;51.946;5.874;2022-07-18T04:58:32;16.10;63.40
43920;DHT22;29578;51.946;5.874;2022-07-18T05:00:58;16.20;63.40
43920;DHT22;29578;51.946;5.874;2022-07-18T05:03:24;16.20;63.40
43920;DHT22;29578;51.946;5.874;2022-07-18T05:05:50;16.20;63.30
43920;DHT22;29578;51.946;5.874;2022-07-18T05:08:15;16.30;63.30
43920;DHT22;29578;51.946;5.874;2022-07-18T05:10:41;16.30;63.10
43920;DHT22;29578;51.946;5.874;2022-07-18T05:13:07;16.40;63.10
43920;DHT22;29578;51.946;5.874;2022-07-18T05:15:32;16.50;63.10
43920;DHT22;29578;51.946;5.874;2022-07-18T05:17:58;16.60;62.90
43920;DHT22;29578;51.946;5.874;2022-07-18T05:20:25;16.60;62.80
43920;DHT22;29578;51.946;5.874;2022-07-18T05:22:52;16.70;62.60
43920;DHT22;29578;51.946;5.874;2022-07-18T05:25:18;16.90;62.50
43920;DHT22;29578;51.946;5.874;2022-07-18T05:27:44;16.90;62.20
43920;DHT22;29578;51.946;5.874;2022-07-18T05:30:12;17.10;62.00
43920;DHT22;29578;51.946;5.874;2022-07-18T05:32:40;17.20;62.00
43920;DHT22;29578;51.946;5.874;2022-07-18T05:35:08;17.30;61.80
43920;DHT22;29578;51.946;5.874;2022-07-18T05:37:35;17.40;61.60
43920;DHT22;29578;51.946;5.874;2022-07-18T05:40:04;17.50;61.40
43920;DHT22;29578;51.946;5.874;2022-07-18T05:42:30;17.60;61.20
43920;DHT22;29578;51.946;5.874;2022-07-18T05:44:56;17.60;61.20
43920;DHT22;29578;51.946;5.874;2022-07-18T05:47:22;17.70;61.20
43920;DHT22;29578;51.946;5.874;2022-07-18T05:49:47;17.70;61.20
43920;DHT22;29578;51.946;5.874;2022-07-18T05:52:13;17.70;61.30
43920;DHT22;29578;51.946;5.874;2022-07-18T05:54:39;17.70;61.30
43920;DHT22;29578;51.946;5.874;2022-07-18T05:57:05;17.80;61.30
43920;DHT22;29578;51.946;5.874;2022-07-18T05:59:31;17.80;61.30
43920;DHT22;29578;51.946;5.874;2022-07-18T06:01:56;17.80;61.40
43920;DHT22;29578;51.946;5.874;2022-07-18T06:04:22;17.90;61.50
43920;DHT22;29578;51.946;5.874;2022-07-18T06:06:48;17.90;61.40
43920;DHT22;29578;51.946;5.874;2022-07-18T06:09:16;18.00;61.40
43920;DHT22;29578;51.946;5.874;2022-07-18T06:11:42;18.00;61.40
43920;DHT22;29578;51.946;5.874;2022-07-18T06:14:08;18.10;61.30
43920;DHT22;29578;51.946;5.874;2022-07-18T06:16:34;18.20;61.20
43920;DHT22;29578;51.946;5.874;2022-07-18T06:19:00;18.20;61.10
43920;DHT22;29578;51.946;5.874;2022-07-18T06:21:26;18.30;61.10
43920;DHT22;29578;51.946;5.874;2022-07-18T06:23:52;18.40;61.10
43920;DHT22;29578;51.946;5.874;2022-07-18T06:26:17;18.50;61.00
43920;DHT22;29578;51.946;5.874;2022-07-18T06:28:43;18.50;60.90
43920;DHT22;29578;51.946;5.874;2022-07-18T06:31:09;18.60;60.80
43920;DHT22;29578;51.946;5.874;2022-07-18T06:33:37;18.70;60.70
43920;DHT22;29578;51.946;5.874;2022-07-18T06:36:03;18.70;60.60
43920;DHT22;29578;51.946;5.874;2022-07-18T06:38:31;18.80;60.60
43920;DHT22;29578;51.946;5.874;2022-07-18T06:41:00;18.90;60.50
43920;DHT22;29578;51.946;5.874;2022-07-18T06:46:37;19.20;60.20
43920;DHT22;29578;51.946;5.874;2022-07-18T06:49:08;19.30;60.70
43920;DHT22;29578;51.946;5.874;2022-07-18T06:51:38;19.40;59.80
43920;DHT22;29578;51.946;5.874;2022-07-18T06:54:04;19.70;59.80
43920;DHT22;29578;51.946;5.874;2022-07-18T06:56:30;19.80;59.50
43920;DHT22;29578;51.946;5.874;2022-07-18T06:58:56;20.00;59.30
43920;DHT22;29578;51.946;5.874;2022-07-18T07:01:24;20.20;59.10
43920;DHT22;29578;51.946;5.874;2022-07-18T07:04:12;20.30;59.00
43920;DHT22;29578;51.946;5.874;2022-07-18T07:07:54;20.50;58.80
43920;DHT22;29578;51.946;5.874;2022-07-18T07:10:51;20.80;58.40
43920;DHT22;29578;51.946;5.874;2022-07-18T07:13:22;21.00;58.20
43920;DHT22;29578;51.946;5.874;2022-07-18T07:15:50;21.20;58.00
43920;DHT22;29578;51.946;5.874;2022-07-18T07:19:02;21.30;57.80
43920;DHT22;29578;51.946;5.874;2022-07-18T07:22:52;21.60;57.50
43920;DHT22;29578;51.946;5.874;2022-07-18T07:25:25;21.80;57.30
43920;DHT22;29578;51.946;5.874;2022-07-18T07:27:52;22.10;57.20
43920;DHT22;29578;51.946;5.874;2022-07-18T07:30:26;22.30;57.00
43920;DHT22;29578;51.946;5.874;2022-07-18T07:33:21;22.50;56.80
43920;DHT22;29578;51.946;5.874;2022-07-18T07:36:13;22.70;56.60
43920;DHT22;29578;51.946;5.874;2022-07-18T07:38:54;23.00;56.50
43920;DHT22;29578;51.946;5.874;2022-07-18T07:41:28;23.10;56.20
43920;DHT22;29578;51.946;5.874;2022-07-18T07:43:59;23.40;56.10
43920;DHT22;29578;51.946;5.874;2022-07-18T07:46:26;23.70;56.00
43920;DHT22;29578;51.946;5.874;2022-07-18T07:49:00;23.90;55.70
43920;DHT22;29578;51.946;5.874;2022-07-18T07:51:35;24.10;55.40
43920;DHT22;29578;51.946;5.874;2022-07-18T07:54:13;24.40;55.10
43920;DHT22;29578;51.946;5.874;2022-07-18T07:57:03;24.80;55.00
43920;DHT22;29578;51.946;5.874;2022-07-18T07:59:36;24.90;54.80
43920;DHT22;29578;51.946;5.874;2022-07-18T08:02:02;25.00;54.70
43920;DHT22;29578;51.946;5.874;2022-07-18T08:04:31;25.10;54.60
43920;DHT22;29578;51.946;5.874;2022-07-18T08:06:57;25.20;54.50
43920;DHT22;29578;51.946;5.874;2022-07-18T08:09:44;25.30;54.50
43920;DHT22;29578;51.946;5.874;2022-07-18T08:23:56;26.10;53.80
43920;DHT22;29578;51.946;5.874;2022-07-18T08:48:00;27.40;53.10
43920;DHT22;29578;51.946;5.874;2022-07-18T08:50:30;27.50;52.90
43920;DHT22;29578;51.946;5.874;2022-07-18T08:52:56;27.70;52.80
43920;DHT22;29578;51.946;5.874;2022-07-18T08:55:25;27.80;52.50
43920;DHT22;29578;51.946;5.874;2022-07-18T08:57:50;27.80;52.40
43920;DHT22;29578;51.946;5.874;2022-07-18T09:00:18;28.00;52.20
43920;DHT22;29578;51.946;5.874;2022-07-18T09:02:44;28.20;51.90
43920;DHT22;29578;51.946;5.874;2022-07-18T09:05:19;28.50;51.70
43920;DHT22;29578;51.946;5.874;2022-07-18T09:07:45;28.50;51.40
43920;DHT22;29578;51.946;5.874;2022-07-18T09:10:11;28.60;51.30
43920;DHT22;29578;51.946;5.874;2022-07-18T09:12:57;28.70;51.20
43920;DHT22;29578;51.946;5.874;2022-07-18T09:15:25;28.60;51.00
43920;DHT22;29578;51.946;5.874;2022-07-18T09:18:00;28.80;51.20
43920;DHT22;29578;51.946;5.874;2022-07-18T09:20:33;28.90;51.00
43920;DHT22;29578;51.946;5.874;2022-07-18T09:23:12;29.00;50.80
43920;DHT22;29578;51.946;5.874;2022-07-18T09:25:39;29.20;50.50
43920;DHT22;29578;51.946;5.874;2022-07-18T09:28:09;29.30;50.40
43920;DHT22;29578;51.946;5.874;2022-07-18T09:30:34;29.40;50.20
43920;DHT22;29578;51.946;5.874;2022-07-18T09:33:07;29.50;50.30
43920;DHT22;29578;51.946;5.874;2022-07-18T09:35:37;29.60;50.00
43920;DHT22;29578;51.946;5.874;2022-07-18T09:38:06;29.60;50.50
43920;DHT22;29578;51.946;5.874;2022-07-18T09:40:38;29.60;49.80
43920;DHT22;29578;51.946;5.874;2022-07-18T09:43:07;29.60;49.60
43920;DHT22;29578;51.946;5.874;2022-07-18T09:45:41;29.70;49.50
43920;DHT22;29578;51.946;5.874;2022-07-18T09:48:21;29.70;49.20
43920;DHT22;29578;51.946;5.874;2022-07-18T09:50:54;29.90;49.00
43920;DHT22;29578;51.946;5.874;2022-07-18T09:53:29;30.00;48.80
43920;DHT22;29578;51.946;5.874;2022-07-18T09:55:59;30.20;48.60
43920;DHT22;29578;51.946;5.874;2022-07-18T09:58:28;30.10;48.30
43920;DHT22;29578;51.946;5.874;2022-07-18T10:00:57;30.00;48.20
43920;DHT22;29578;51.946;5.874;2022-07-18T10:03:23;29.80;48.10
43920;DHT22;29578;51.946;5.874;2022-07-18T10:05:52;29.60;48.50
43920;DHT22;29578;51.946;5.874;2022-07-18T10:08:22;29.40;48.60
43920;DHT22;29578;51.946;5.874;2022-07-18T10:10:49;29.20;48.80
43920;DHT22;29578;51.946;5.874;2022-07-18T10:13:17;29.10;49.10
43920;DHT22;29578;51.946;5.874;2022-07-18T10:15:45;29.00;49.20
43920;DHT22;29578;51.946;5.874;2022-07-18T10:18:13;28.90;49.30
43920;DHT22;29578;51.946;5.874;2022-07-18T10:20:45;28.80;49.50
43920;DHT22;29578;51.946;5.874;2022-07-18T10:23:17;28.70;49.60
43920;DHT22;29578;51.946;5.874;2022-07-18T10:25:44;28.80;49.60
43920;DHT22;29578;51.946;5.874;2022-07-18T10:28:13;29.00;49.30
43920;DHT22;29578;51.946;5.874;2022-07-18T10:30:44;29.00;49.00
43920;DHT22;29578;51.946;5.874;2022-07-18T10:33:38;29.00;49.00
43920;DHT22;29578;51.946;5.874;2022-07-18T10:36:07;28.90;49.20
43920;DHT22;29578;51.946;5.874;2022-07-18T10:38:34;28.70;49.40
43920;DHT22;29578;51.946;5.874;2022-07-18T10:41:12;28.60;49.60
43920;DHT22;29578;51.946;5.874;2022-07-18T10:43:41;28.70;49.50
43920;DHT22;29578;51.946;5.874;2022-07-18T10:46:11;29.00;49.30
43920;DHT22;29578;51.946;5.874;2022-07-18T10:48:58;29.20;48.80
43920;DHT22;29578;51.946;5.874;2022-07-18T10:51:36;29.40;48.40
43920;DHT22;29578;51.946;5.874;2022-07-18T10:54:05;29.60;48.10
43920;DHT22;29578;51.946;5.874;2022-07-18T10:59:58;30.10;48.10
43920;DHT22;29578;51.946;5.874;2022-07-18T11:02:33;30.30;47.20
43920;DHT22;29578;51.946;5.874;2022-07-18T11:04:59;30.40;47.00
43920;DHT22;29578;51.946;5.874;2022-07-18T11:07:28;30.50;46.70
43920;DHT22;29578;51.946;5.874;2022-07-18T11:09:56;30.50;46.60
43920;DHT22;29578;51.946;5.874;2022-07-18T11:12:27;30.50;46.50
43920;DHT22;29578;51.946;5.874;2022-07-18T11:15:01;30.50;46.40
43920;DHT22;29578;51.946;5.874;2022-07-18T11:17:54;30.60;46.20
43920;DHT22;29578;51.946;5.874;2022-07-18T11:20:29;30.50;46.00
43920;DHT22;29578;51.946;5.874;2022-07-18T11:23:20;30.70;45.80
43920;DHT22;29578;51.946;5.874;2022-07-18T11:25:49;30.70;45.70
43920;DHT22;29578;51.946;5.874;2022-07-18T11:28:15;30.80;45.60
43920;DHT22;29578;51.946;5.874;2022-07-18T11:30:42;30.90;45.50
43920;DHT22;29578;51.946;5.874;2022-07-18T11:33:21;31.00;45.20
43920;DHT22;29578;51.946;5.874;2022-07-18T11:35:48;31.10;45.00
43920;DHT22;29578;51.946;5.874;2022-07-18T11:38:13;31.20;45.10
43920;DHT22;29578;51.946;5.874;2022-07-18T11:40:54;31.20;45.00
43920;DHT22;29578;51.946;5.874;2022-07-18T11:46:22;31.30;44.70
43920;DHT22;29578;51.946;5.874;2022-07-18T11:49:05;31.30;44.70
43920;DHT22;29578;51.946;5.874;2022-07-18T11:51:40;31.40;44.60
43920;DHT22;29578;51.946;5.874;2022-07-18T11:54:06;31.50;44.60
43920;DHT22;29578;51.946;5.874;2022-07-18T11:56:32;31.50;44.30
43920;DHT22;29578;51.946;5.874;2022-07-18T11:59:04;31.60;44.30
43920;DHT22;29578;51.946;5.874;2022-07-18T12:01:31;31.50;44.00
43920;DHT22;29578;51.946;5.874;2022-07-18T12:04:22;31.50;44.00
43920;DHT22;29578;51.946;5.874;2022-07-18T12:07:23;31.50;44.00
43920;DHT22;29578;51.946;5.874;2022-07-18T12:09:52;31.40;44.10
43920;DHT22;29578;51.946;5.874;2022-07-18T12:12:21;31.50;44.00
43920;DHT22;29578;51.946;5.874;2022-07-18T12:15:02;31.40;43.80
43920;DHT22;29578;51.946;5.874;2022-07-18T12:17:31;31.30;43.80
43920;DHT22;29578;51.946;5.874;2022-07-18T12:20:14;31.40;43.90
43920;DHT22;29578;51.946;5.874;2022-07-18T12:23:08;31.40;43.70
43920;DHT22;29578;51.946;5.874;2022-07-18T12:25:43;31.50;43.60
43920;DHT22;29578;51.946;5.874;2022-07-18T12:28:15;31.50;43.50
43920;DHT22;29578;51.946;5.874;2022-07-18T12:30:41;31.50;43.40
43920;DHT22;29578;51.946;5.874;2022-07-18T12:33:08;31.60;43.40
43920;DHT22;29578;51.946;5.874;2022-07-18T12:35:35;31.60;43.30
43920;DHT22;29578;51.946;5.874;2022-07-18T12:38:05;31.60;43.30
43920;DHT22;29578;51.946;5.874;2022-07-18T12:40:50;31.70;43.20
43920;DHT22;29578;51.946;5.874;2022-07-18T12:43:34;31.60;43.10
43920;DHT22;29578;51.946;5.874;2022-07-18T12:46:03;31.70;43.00
43920;DHT22;29578;51.946;5.874;2022-07-18T12:48:30;31.70;43.00
43920;DHT22;29578;51.946;5.874;2022-07-18T12:51:02;31.70;42.90
43920;DHT22;29578;51.946;5.874;2022-07-18T12:53:30;31.80;42.80
43920;DHT22;29578;51.946;5.874;2022-07-18T12:56:09;31.80;42.70
43920;DHT22;29578;51.946;5.874;2022-07-18T13:01:36;31.70;43.00
43920;DHT22;29578;51.946;5.874;2022-07-18T13:04:04;31.60;42.90
43920;DHT22;29578;51.946;5.874;2022-07-18T13:06:55;31.60;42.80
43920;DHT22;29578;51.946;5.874;2022-07-18T13:09:48;31.60;42.70
43920;DHT22;29578;51.946;5.874;2022-07-18T13:12:16;31.60;42.60
43920;DHT22;29578;51.946;5.874;2022-07-18T13:14:42;31.60;42.70
43920;DHT22;29578;51.946;5.874;2022-07-18T13:17:14;31.70;42.60
43920;DHT22;29578;51.946;5.874;2022-07-18T13:19:49;31.70;42.50
43920;DHT22;29578;51.946;5.874;2022-07-18T13:22:42;31.60;42.50
43920;DHT22;29578;51.946;5.874;2022-07-18T13:25:18;31.60;42.50
43920;DHT22;29578;51.946;5.874;2022-07-18T13:27:45;31.70;42.50
43920;DHT22;29578;51.946;5.874;2022-07-18T13:39:53;31.70;42.20
43920;DHT22;29578;51.946;5.874;2022-07-18T13:43:07;31.60;42.30
43920;DHT22;29578;51.946;5.874;2022-07-18T13:48:41;31.50;42.30
43920;DHT22;29578;51.946;5.874;2022-07-18T13:51:13;31.50;42.20
43920;DHT22;29578;51.946;5.874;2022-07-18T13:54:00;31.60;42.00
43920;DHT22;29578;51.946;5.874;2022-07-18T13:57:14;31.60;42.00
43920;DHT22;29578;51.946;5.874;2022-07-18T14:00:00;31.50;42.00
43920;DHT22;29578;51.946;5.874;2022-07-18T14:02:26;31.50;42.20
43920;DHT22;29578;51.946;5.874;2022-07-18T14:04:53;31.50;42.10
43920;DHT22;29578;51.946;5.874;2022-07-18T14:07:18;31.50;42.10
43920;DHT22;29578;51.946;5.874;2022-07-18T14:09:44;31.40;42.00
43920;DHT22;29578;51.946;5.874;2022-07-18T14:12:12;31.50;42.10
43920;DHT22;29578;51.946;5.874;2022-07-18T14:14:38;31.30;41.90
43920;DHT22;29578;51.946;5.874;2022-07-18T14:17:06;31.40;41.90
43920;DHT22;29578;51.946;5.874;2022-07-18T14:19:58;31.50;41.80
43920;DHT22;29578;51.946;5.874;2022-07-18T14:22:56;31.40;41.70
43920;DHT22;29578;51.946;5.874;2022-07-18T14:25:22;31.40;41.70
43920;DHT22;29578;51.946;5.874;2022-07-18T14:28:01;31.40;41.70
43920;DHT22;29578;51.946;5.874;2022-07-18T14:30:27;31.40;41.60
43920;DHT22;29578;51.946;5.874;2022-07-18T14:32:56;31.40;41.50
43920;DHT22;29578;51.946;5.874;2022-07-18T14:36:23;31.40;41.40
43920;DHT22;29578;51.946;5.874;2022-07-18T14:39:53;31.40;41.30
43920;DHT22;29578;51.946;5.874;2022-07-18T14:46:33;31.60;40.80
43920;DHT22;29578;51.946;5.874;2022-07-18T14:49:21;31.60;40.80
43920;DHT22;29578;51.946;5.874;2022-07-18T14:52:10;31.50;40.90
43920;DHT22;29578;51.946;5.874;2022-07-18T14:55:03;31.40;40.80
43920;DHT22;29578;51.946;5.874;2022-07-18T14:57:29;31.50;41.00
43920;DHT22;29578;51.946;5.874;2022-07-18T14:59:54;31.50;41.00
43920;DHT22;29578;51.946;5.874;2022-07-18T15:05:33;31.50;40.90
43920;DHT22;29578;51.946;5.874;2022-07-18T15:08:31;31.50;40.80
43920;DHT22;29578;51.946;5.874;2022-07-18T15:11:20;31.50;40.60
43920;DHT22;29578;51.946;5.874;2022-07-18T15:13:52;31.50;40.70
43920;DHT22;29578;51.946;5.874;2022-07-18T15:23:36;31.70;40.20
43920;DHT22;29578;51.946;5.874;2022-07-18T15:26:24;31.80;40.30
43920;DHT22;29578;51.946;5.874;2022-07-18T15:28:57;31.70;40.20
43920;DHT22;29578;51.946;5.874;2022-07-18T15:31:23;31.80;40.30
43920;DHT22;29578;51.946;5.874;2022-07-18T15:33:49;31.80;40.80
43920;DHT22;29578;51.946;5.874;2022-07-18T15:36:14;31.80;40.10
43920;DHT22;29578;51.946;5.874;2022-07-18T15:38:40;31.80;40.00
43920;DHT22;29578;51.946;5.874;2022-07-18T15:41:07;31.80;40.00
43920;DHT22;29578;51.946;5.874;2022-07-18T15:43:33;31.80;40.00
43920;DHT22;29578;51.946;5.874;2022-07-18T15:45:59;31.80;40.00
43920;DHT22;29578;51.946;5.874;2022-07-18T15:48:25;31.90;39.90
43920;DHT22;29578;51.946;5.874;2022-07-18T15:50:51;31.90;39.90
43920;DHT22;29578;51.946;5.874;2022-07-18T15:53:17;31.90;39.90
43920;DHT22;29578;51.946;5.874;2022-07-18T15:55:42;32.00;39.90
43920;DHT22;29578;51.946;5.874;2022-07-18T15:58:08;32.00;39.90
43920;DHT22;29578;51.946;5.874;2022-07-18T16:00:34;32.00;39.90
43920;DHT22;29578;51.946;5.874;2022-07-18T16:03:00;31.90;39.80
43920;DHT22;29578;51.946;5.874;2022-07-18T16:05:27;32.00;39.90
43920;DHT22;29578;51.946;5.874;2022-07-18T16:07:53;32.00;39.90
43920;DHT22;29578;51.946;5.874;2022-07-18T16:10:19;32.00;39.90
43920;DHT22;29578;51.946;5.874;2022-07-18T16:12:44;31.90;39.80
43920;DHT22;29578;51.946;5.874;2022-07-18T16:15:11;31.90;39.80
43920;DHT22;29578;51.946;5.874;2022-07-18T16:17:38;32.00;39.90
43920;DHT22;29578;51.946;5.874;2022-07-18T16:20:06;32.00;39.90
43920;DHT22;29578;51.946;5.874;2022-07-18T16:22:32;31.90;39.80
43920;DHT22;29578;51.946;5.874;2022-07-18T16:24:58;31.90;39.90
43920;DHT22;29578;51.946;5.874;2022-07-18T16:27:24;31.90;40.00
43920;DHT22;29578;51.946;5.874;2022-07-18T16:29:49;31.90;40.00
43920;DHT22;29578;51.946;5.874;2022-07-18T16:32:15;31.80;40.00
43920;DHT22;29578;51.946;5.874;2022-07-18T16:34:41;31.90;40.00
43920;DHT22;29578;51.946;5.874;2022-07-18T16:37:07;31.80;40.00
43920;DHT22;29578;51.946;5.874;2022-07-18T16:39:32;31.80;40.10
43920;DHT22;29578;51.946;5.874;2022-07-18T16:41:58;31.80;40.00
43920;DHT22;29578;51.946;5.874;2022-07-18T16:44:24;31.70;39.90
43920;DHT22;29578;51.946;5.874;2022-07-18T16:46:51;31.70;39.90
43920;DHT22;29578;51.946;5.874;2022-07-18T16:49:17;31.60;40.00
43920;DHT22;29578;51.946;5.874;2022-07-18T16:51:43;31.70;40.20
43920;DHT22;29578;51.946;5.874;2022-07-18T16:54:09;31.60;40.10
43920;DHT22;29578;51.946;5.874;2022-07-18T16:56:35;31.60;40.10
43920;DHT22;29578;51.946;5.874;2022-07-18T16:59:03;31.60;40.20
43920;DHT22;29578;51.946;5.874;2022-07-18T17:01:29;31.50;40.20
43920;DHT22;29578;51.946;5.874;2022-07-18T17:03:55;31.50;40.30